Estill, Mississippi
Current Conditions -  °F | °C
As of 11:53 AM on Thursday 18 Dec 2014 (Local Time) from KGLH Reporting Station
Overcast Overcast  
Wind Chill: 45°   Ceiling: 3800
Heat Index: 48°   Visibility: 7mi
Dew Point: 43°   Wind: 6mph
Humidity: 83%   Direction: 120°ESE
Pressure: 30.19"   Gusts: NA
Location:  33.1785°N, 90.8086°W
Report Text: KGLH 181753Z AUTO 12005KT 7SM SCT030 OVC038 09/06 A3019 RMK AO2 SLP232 60000 T00890061 10089 20056 58008
Loading
Personal Weather Stations






























Interactive Weather Map New forecast layout! Learn more

10-Day Weather Forecast

Advertisements
Track Severe Weather on mobile